createdAt,value
2018-06-15T00:00:41.680Z,100412.00
2018-06-15T00:03:12.277Z,100419.00
2018-06-15T00:05:43.779Z,100425.00
2018-06-15T00:08:13.014Z,100420.00
2018-06-15T00:13:42.239Z,100417.00
2018-06-15T00:16:11.156Z,100419.00
2018-06-15T00:18:40.338Z,100416.00
2018-06-15T00:21:09.547Z,100417.00
2018-06-15T00:23:38.722Z,100417.00
2018-06-15T00:26:07.681Z,100419.00
2018-06-15T00:28:36.889Z,100420.00
2018-06-15T00:31:06.070Z,100412.00
2018-06-15T00:33:35.300Z,100415.00
2018-06-15T00:36:04.465Z,100416.00
2018-06-15T00:38:56.894Z,100417.00
2018-06-15T00:41:26.257Z,100412.00
2018-06-15T00:43:55.604Z,100417.00
2018-06-15T00:46:25.040Z,100411.00
2018-06-15T00:48:54.185Z,100406.00
2018-06-15T00:51:23.339Z,100412.00
2018-06-15T00:53:54.494Z,100406.00
2018-06-15T00:56:23.838Z,100409.00
2018-06-15T00:58:53.329Z,100408.00
2018-06-15T01:01:22.698Z,100405.00
2018-06-15T01:03:53.226Z,100398.00
2018-06-15T01:09:22.853Z,100398.00
2018-06-15T01:11:52.005Z,100406.00
2018-06-15T01:14:21.178Z,100392.00
2018-06-15T01:16:50.512Z,100398.00
2018-06-15T01:22:20.678Z,100412.00
2018-06-15T01:24:49.837Z,100400.00
2018-06-15T01:27:19.022Z,100400.00
2018-06-15T01:29:48.218Z,100392.00
2018-06-15T01:32:17.369Z,100396.00
2018-06-15T01:34:59.153Z,100402.00
2018-06-15T01:37:28.318Z,100402.00
2018-06-15T01:39:57.497Z,100391.00
2018-06-15T01:42:26.710Z,100397.00
2018-06-15T01:44:55.865Z,100394.00
2018-06-15T01:47:25.025Z,100395.00
2018-06-15T01:49:54.234Z,100400.00
2018-06-15T01:52:24.105Z,100398.00
2018-06-15T01:54:54.630Z,100395.00
2018-06-15T01:57:24.749Z,100397.00
2018-06-15T01:59:53.919Z,100398.00
2018-06-15T02:05:23.774Z,100400.00
2018-06-15T02:07:52.972Z,100396.00
2018-06-15T02:10:22.144Z,100400.00
2018-06-15T02:12:51.352Z,100410.00
2018-06-15T02:15:20.530Z,100408.00
2018-06-15T02:17:49.684Z,100395.00
2018-06-15T02:20:18.878Z,100403.00
2018-06-15T02:22:48.034Z,100400.00
2018-06-15T02:25:17.462Z,100399.00
2018-06-15T02:27:47.057Z,100405.00
2018-06-15T02:30:16.606Z,100405.00
2018-06-15T02:32:45.930Z,100404.00
2018-06-15T02:35:15.146Z,100406.00
2018-06-15T02:37:44.306Z,100411.00
2018-06-15T02:40:13.474Z,100408.00
2018-06-15T02:45:43.290Z,100402.00
2018-06-15T02:48:12.704Z,100397.00
2018-06-15T02:50:41.898Z,100407.00
2018-06-15T02:53:11.141Z,100395.00
2018-06-15T02:55:41.421Z,100401.00
2018-06-15T02:58:11.224Z,100400.00
2018-06-15T03:00:40.425Z,100399.00
2018-06-15T03:03:09.581Z,100398.00
2018-06-15T03:05:38.769Z,100405.00
2018-06-15T03:08:07.945Z,100404.00
2018-06-15T03:16:37.203Z,100406.00
2018-06-15T03:19:06.411Z,100403.00
2018-06-15T03:21:35.645Z,100394.00
2018-06-15T03:24:04.829Z,100402.00
2018-06-15T03:26:33.985Z,100397.00
2018-06-15T03:29:03.174Z,100403.00
2018-06-15T03:31:32.388Z,100408.00
2018-06-15T03:34:01.584Z,100413.00
2018-06-15T03:36:30.813Z,100415.00
2018-06-15T03:39:00.030Z,100417.00
2018-06-15T03:41:29.376Z,100415.00
2018-06-15T03:43:58.616Z,100420.00
2018-06-15T03:46:27.945Z,100422.00
2018-06-15T03:48:57.126Z,100422.00
2018-06-15T03:51:26.303Z,100423.00
2018-06-15T03:53:55.518Z,100419.00
2018-06-15T03:56:24.686Z,100434.00
2018-06-15T03:58:54.195Z,100429.00
2018-06-15T04:01:23.461Z,100428.00
2018-06-15T04:03:52.750Z,100434.00
2018-06-15T04:06:21.946Z,100438.00
2018-06-15T04:11:50.888Z,100437.00
2018-06-15T04:14:20.052Z,100431.00
2018-06-15T04:16:49.218Z,100441.00
2018-06-15T04:19:18.410Z,100445.00
2018-06-15T04:21:47.565Z,100440.00
2018-06-15T04:24:16.729Z,100435.00
2018-06-15T04:26:45.925Z,100430.00
2018-06-15T04:29:15.069Z,100438.00
2018-06-15T04:31:44.224Z,100437.00
2018-06-15T04:37:13.958Z,100443.00
2018-06-15T04:39:43.131Z,100434.00
2018-06-15T04:42:12.316Z,100433.00
2018-06-15T04:44:41.500Z,100438.00
2018-06-15T04:47:10.670Z,100444.00
2018-06-15T04:49:40.205Z,100451.00
2018-06-15T04:52:09.455Z,100450.00
2018-06-15T04:54:38.651Z,100456.00
2018-06-15T04:57:07.830Z,100463.00
2018-06-15T04:59:37.232Z,100465.00
2018-06-15T05:02:06.401Z,100469.00
2018-06-15T05:07:35.361Z,100461.00
2018-06-15T05:10:04.766Z,100464.00
2018-06-15T05:12:33.931Z,100462.00
2018-06-15T05:18:35.487Z,100464.00
2018-06-15T05:21:04.694Z,100464.00
2018-06-15T05:23:33.845Z,100462.00
2018-06-15T05:26:03.084Z,100464.00
2018-06-15T05:28:32.349Z,100470.00
2018-06-15T05:31:01.522Z,100474.00
2018-06-15T05:33:30.701Z,100469.00
2018-06-15T05:36:00.071Z,100473.00
2018-06-15T05:38:29.278Z,100467.00
2018-06-15T05:40:58.472Z,100472.00
2018-06-15T05:43:27.669Z,100466.00
2018-06-15T05:48:57.523Z,100478.00
2018-06-15T05:51:26.698Z,100473.00
2018-06-15T05:53:55.878Z,100472.00
2018-06-15T05:56:25.054Z,100463.00
2018-06-15T05:58:54.225Z,100464.00
2018-06-15T06:01:23.458Z,100467.00
2018-06-15T06:03:52.708Z,100473.00
2018-06-15T06:06:22.146Z,100474.00
2018-06-15T06:08:51.364Z,100476.00
2018-06-15T06:14:21.238Z,100479.00
2018-06-15T06:19:58.021Z,100475.00
2018-06-15T06:22:27.158Z,100475.00
2018-06-15T06:24:57.846Z,100480.00
2018-06-15T06:36:56.443Z,100484.00
2018-06-15T07:18:12.465Z,100478.00
2018-06-15T07:29:58.614Z,100476.00
2018-06-15T08:06:15.795Z,100478.00
2018-06-15T08:35:56.825Z,100457.00
2018-06-15T08:47:26.207Z,100456.00
2018-06-15T08:55:58.670Z,100454.00
2018-06-15T08:58:56.621Z,100458.00
2018-06-15T09:07:25.790Z,100458.00
2018-06-15T09:18:58.405Z,100448.00
2018-06-15T09:27:55.693Z,100444.00
2018-06-15T09:36:55.644Z,100438.00
2018-06-15T09:59:57.589Z,100431.00
2018-06-15T10:02:26.761Z,100429.00
2018-06-15T10:04:55.966Z,100438.00
2018-06-15T10:10:25.598Z,100429.00
2018-06-15T10:12:58.442Z,100428.00
2018-06-15T10:15:57.098Z,100425.00
2018-06-15T10:36:58.748Z,100434.00
2018-06-15T10:59:26.506Z,100424.00
2018-06-15T11:10:59.821Z,100422.00
2018-06-15T11:16:56.025Z,100426.00
2018-06-15T11:40:56.315Z,100424.00
2018-06-15T14:31:18.097Z,100397.00
2018-06-15T14:33:47.301Z,100392.00
2018-06-15T14:39:18.596Z,100399.00
2018-06-15T14:41:47.771Z,100392.00
2018-06-15T14:44:22.756Z,100401.00
2018-06-15T14:46:51.965Z,100398.00
2018-06-15T14:50:57.813Z,100391.00
2018-06-15T14:53:56.339Z,100386.00
2018-06-15T15:14:55.813Z,100386.00
2018-06-15T15:26:19.308Z,100385.00
2018-06-15T15:40:58.713Z,100383.00
2018-06-15T15:43:54.638Z,100394.00
2018-06-15T15:49:25.273Z,100393.00
2018-06-15T15:51:55.632Z,100395.00
2018-06-15T15:54:24.827Z,100398.00
2018-06-15T15:56:59.521Z,100404.00
2018-06-15T15:59:55.897Z,100395.00
2018-06-15T16:08:25.677Z,100404.00
2018-06-15T17:48:25.838Z,100417.00
2018-06-15T17:50:58.526Z,100419.00
2018-06-15T17:53:27.700Z,100420.00
2018-06-15T17:55:56.861Z,100415.00
2018-06-15T17:58:26.031Z,100423.00
2018-06-15T18:00:55.241Z,100422.00
2018-06-15T18:03:24.399Z,100425.00
2018-06-15T18:05:53.596Z,100422.00
2018-06-15T18:08:22.794Z,100425.00
2018-06-15T18:10:52.849Z,100428.00
2018-06-15T18:13:22.080Z,100424.00
2018-06-15T18:15:51.258Z,100420.00
2018-06-15T18:18:20.437Z,100417.00
2018-06-15T18:21:08.699Z,100421.00
2018-06-15T18:23:37.900Z,100421.00
2018-06-15T18:26:07.078Z,100419.00
2018-06-15T18:33:55.769Z,100427.00
2018-06-15T18:36:25.300Z,100431.00
2018-06-15T18:47:59.003Z,100435.00
2018-06-15T18:50:57.311Z,100433.00
2018-06-15T18:56:20.771Z,100443.00
2018-06-15T18:58:58.016Z,100447.00
2018-06-15T19:04:55.787Z,100447.00
2018-06-15T19:13:25.876Z,100454.00
2018-06-15T19:15:55.028Z,100458.00
2018-06-15T19:18:24.206Z,100459.00
2018-06-15T19:20:59.178Z,100457.00
2018-06-15T19:23:57.054Z,100463.00
2018-06-15T19:26:26.258Z,100460.00
2018-06-15T19:32:00.059Z,100462.00
2018-06-15T19:34:56.425Z,100465.00
2018-06-15T19:40:25.606Z,100471.00
2018-06-15T19:42:58.606Z,100475.00
2018-06-15T19:45:57.255Z,100478.00
2018-06-15T19:48:26.197Z,100478.00
2018-06-15T19:50:59.208Z,100480.00
2018-06-15T19:53:55.913Z,100480.00
2018-06-15T19:59:24.890Z,100486.00
2018-06-15T20:01:54.105Z,100488.00
2018-06-15T20:04:23.350Z,100482.00
2018-06-15T20:06:52.605Z,100476.00
2018-06-15T20:09:21.824Z,100483.00
2018-06-15T20:11:57.862Z,100487.00
2018-06-15T20:14:27.009Z,100485.00
2018-06-15T20:16:56.168Z,100491.00
2018-06-15T20:19:25.444Z,100497.00
2018-06-15T20:21:54.593Z,100496.00
2018-06-15T20:27:24.485Z,100509.00
2018-06-15T20:29:53.730Z,100505.00
2018-06-15T20:32:22.903Z,100503.00
2018-06-15T20:34:52.111Z,100506.00
2018-06-15T20:37:21.327Z,100510.00
2018-06-15T20:39:57.613Z,100509.00
2018-06-15T20:42:26.808Z,100508.00
2018-06-15T20:44:56.057Z,100514.00
2018-06-15T20:47:25.251Z,100519.00
2018-06-15T20:49:54.469Z,100519.00
2018-06-15T20:55:24.162Z,100529.00
2018-06-15T20:57:53.353Z,100528.00
2018-06-15T21:00:22.859Z,100531.00
2018-06-15T21:02:52.022Z,100530.00
2018-06-15T21:05:21.219Z,100533.00
2018-06-15T21:07:50.482Z,100536.00
2018-06-15T21:10:19.662Z,100542.00
2018-06-15T21:12:48.857Z,100541.00
2018-06-15T21:15:18.205Z,100545.00
2018-06-15T21:17:47.466Z,100547.00
2018-06-15T21:20:16.721Z,100546.00
2018-06-15T21:25:45.987Z,100550.00
2018-06-15T21:28:15.229Z,100541.00
2018-06-15T21:30:44.413Z,100549.00
2018-06-15T21:33:13.613Z,100547.00
2018-06-15T21:38:43.457Z,100558.00
2018-06-15T21:41:12.432Z,100559.00
2018-06-15T21:43:41.612Z,100551.00
2018-06-15T21:46:10.800Z,100552.00
2018-06-15T21:51:39.918Z,100557.00
2018-06-15T21:54:09.064Z,100563.00
2018-06-15T21:56:38.236Z,100560.00
2018-06-15T21:59:07.422Z,100567.00
2018-06-15T22:01:37.256Z,100558.00
2018-06-15T22:04:06.437Z,100554.00
2018-06-15T22:06:35.627Z,100557.00
2018-06-15T22:09:07.305Z,100561.00
2018-06-15T22:11:36.518Z,100569.00
2018-06-15T22:14:05.714Z,100570.00
2018-06-15T22:19:14.981Z,100563.00
2018-06-15T22:21:44.145Z,100564.00
2018-06-15T22:24:13.352Z,100567.00
2018-06-15T22:26:42.580Z,100570.00
2018-06-15T22:29:11.799Z,100571.00
2018-06-15T22:31:57.864Z,100571.00
2018-06-15T22:34:27.116Z,100572.00
2018-06-15T22:39:56.633Z,100565.00
2018-06-15T22:42:25.812Z,100571.00
2018-06-15T22:44:54.981Z,100573.00
2018-06-15T22:47:24.186Z,100579.00
2018-06-15T22:49:53.351Z,100572.00
2018-06-15T22:52:22.516Z,100568.00
2018-06-15T22:54:51.800Z,100571.00
2018-06-15T22:57:20.974Z,100574.00
2018-06-15T22:59:50.196Z,100578.00
2018-06-15T23:02:19.368Z,100575.00
2018-06-15T23:04:48.621Z,100577.00
2018-06-15T23:07:17.805Z,100573.00
2018-06-15T23:09:46.966Z,100575.00
2018-06-15T23:12:16.150Z,100573.00
2018-06-15T23:17:57.798Z,100582.00
2018-06-15T23:20:26.989Z,100582.00
2018-06-15T23:22:56.174Z,100569.00
2018-06-15T23:25:25.377Z,100578.00
2018-06-15T23:27:54.525Z,100575.00
2018-06-15T23:30:23.722Z,100570.00
2018-06-15T23:32:53.014Z,100571.00
2018-06-15T23:35:22.289Z,100576.00
2018-06-15T23:37:51.478Z,100574.00
2018-06-15T23:40:20.662Z,100582.00
2018-06-15T23:42:58.110Z,100591.00
2018-06-15T23:45:27.263Z,100605.00
2018-06-15T23:47:56.448Z,100595.00
2018-06-15T23:50:25.642Z,100582.00
2018-06-15T23:52:54.801Z,100578.00
2018-06-15T23:58:24.629Z,100577.00
